Time;durP1;ratioP1;P1;durP2;ratioP2;P2;SDS_P1;SDS_P2;PMS_P1;PMS_P2;Temp;Humidity;BMP_temperature;BMP_pressure;BME280_temperature;BME280_humidity;BME280_pressure;Samples;Min_cycle;Max_cycle;Signal;HPM_P1;HPM_P2
2023/08/12 00:00:40;;;;;;;2.47;1.42;;;;;;;;;;20896956;28;20218;-75
2023/08/12 00:10:43;;;;;;;3.25;1.60;;;;;;;;;;20888310;28;20241;-75
2023/08/12 00:20:46;;;;;;;2.75;1.27;;;;;;;;;;20969900;28;20244;-75
2023/08/12 00:30:49;;;;;;;2.08;1.48;;;;;;;;;;20960596;28;20220;-75
2023/08/12 00:40:51;;;;;;;3.22;1.67;;;;;;;;;;20896073;28;20374;-75
2023/08/12 00:50:53;;;;;;;2.05;1.35;;;;;;;;;;20892725;28;20817;-74
2023/08/12 01:00:55;;;;;;;2.38;1.45;;;;;;;;;;20892222;28;20636;-75
2023/08/12 01:11:07;;;;;;;3.42;1.50;;;;;;;;;;20891045;28;20282;-75
2023/08/12 01:21:12;;;;;;;3.78;1.40;;;;;;;;;;20906670;28;20227;-75
2023/08/12 01:31:30;;;;;;;2.45;1.40;;;24.30;99.90;;;;;;20969613;28;20221;-75
2023/08/12 01:41:32;;;;;;;2.67;1.50;;;;;;;;;;20920589;28;20671;-75
2023/08/12 01:51:34;;;;;;;2.47;1.35;;;;;;;;;;20970765;28;20268;-75
2023/08/12 02:01:38;;;;;;;2.10;1.20;;;;;;;;;;20953239;28;20232;-75
2023/08/12 02:11:40;;;;;;;2.35;1.50;;;;;;;;;;20858126;23;20277;-66
2023/08/12 02:21:42;;;;;;;1.58;1.30;;;;;;;;;;20887456;28;20212;-66
2023/08/12 02:31:44;;;;;;;2.38;1.55;;;;;;;;;;20887027;28;20748;-66
2023/08/12 02:41:46;;;;;;;2.17;1.38;;;;;;;;;;20886243;28;20293;-66
2023/08/12 02:51:48;;;;;;;1.80;1.33;;;;;;;;;;20853120;28;20869;-66
2023/08/12 03:01:50;;;;;;;2.30;1.45;;;;;;;;;;20884553;28;20286;-66
2023/08/12 03:11:52;;;;;;;2.10;1.40;;;;;;;;;;20884320;28;20280;-66
2023/08/12 03:21:54;;;;;;;2.03;1.52;;;;;;;;;;20884110;28;20227;-66
2023/08/12 03:31:58;;;;;;;2.45;1.45;;;;;;;;;;20867856;28;20695;-66
2023/08/12 03:42:01;;;;;;;2.08;1.20;;;;;;;;;;20882555;28;20235;-66
2023/08/12 03:52:06;;;;;;;2.53;1.20;;;;;;;;;;20851003;28;20335;-66
2023/08/12 04:02:09;;;;;;;4.63;1.17;;;;;;;;;;20850798;28;20223;-66
2023/08/12 04:12:11;;;;;;;2.45;1.30;;;;;;;;;;20882502;28;20252;-66
2023/08/12 04:22:14;;;;;;;2.50;1.50;;;;;;;;;;20895411;28;20290;-66
2023/08/12 04:32:16;;;;;;;2.15;1.40;;;;;;;;;;20912771;28;20215;-66
2023/08/12 04:42:19;;;;;;;2.45;1.50;;;;;;;;;;20895339;28;20226;-66
2023/08/12 04:52:22;;;;;;;1.60;1.05;;;;;;;;;;20894537;28;20293;-66
2023/08/12 05:02:25;;;;;;;3.10;1.35;;;;;;;;;;20893943;28;20271;-66
2023/08/12 05:12:27;;;;;;;2.72;1.75;;;;;;;;;;20893345;28;20291;-67
2023/08/12 05:22:30;;;;;;;1.80;1.48;;;;;;;;;;20859547;28;20231;-66
2023/08/12 05:32:31;;;;;;;2.00;1.30;;;;;;;;;;20891101;28;20269;-66
2023/08/12 05:42:33;;;;;;;1.90;1.30;;;;;;;;;;20890690;28;20287;-66
2023/08/12 05:52:36;;;;;;;3.25;1.30;;;;;;;;;;20905825;28;20236;-66
2023/08/12 06:02:38;;;;;;;1.90;1.40;;;;;;;;;;20856118;28;20219;-66
2023/08/12 06:12:40;;;;;;;1.88;1.10;;;;;;;;;;20903772;28;20240;-66
2023/08/12 06:22:43;;;;;;;2.35;1.27;;;;;;;;;;20903015;28;20586;-66
2023/08/12 06:32:45;;;;;;;3.88;1.20;;;;;;;;;;20886161;28;20228;-66
2023/08/12 06:42:47;;;;;;;2.97;1.23;;;;;;;;;;20884422;28;20266;-66
2023/08/12 06:52:50;;;;;;;1.60;1.20;;;;;;;;;;20871488;28;20230;-66
2023/08/12 07:02:52;;;;;;;1.52;1.08;;;;;;;;;;20884508;28;20293;-66
2023/08/12 07:12:54;;;;;;;2.00;1.33;;;;;;;;;;20884372;28;20291;-67
2023/08/12 07:22:56;;;;;;;1.75;1.20;;;;;;;;;;20867256;28;20515;-66
2023/08/12 07:32:58;;;;;;;2.10;1.50;;;;;;;;;;20899986;28;20243;-67
2023/08/12 07:43:01;;;;;;;2.80;1.17;;;;;;;;;;20882694;28;20292;-66
2023/08/12 07:53:02;;;;;;;1.55;1.20;;;;;;;;;;20893249;28;20290;-67
2023/08/12 08:03:05;;;;;;;2.63;1.40;;;;;;;;;;20897013;28;20296;-67
2023/08/12 08:13:07;;;;;;;2.75;1.50;;;;;;;;;;20821307;22;20601;-75
2023/08/12 08:23:08;;;;;;;2.05;1.52;;;;;;;;;;20731036;28;20229;-76
2023/08/12 08:33:10;;;;;;;1.88;1.30;;;;;;;;;;20776894;28;20222;-75
2023/08/12 08:43:13;;;;;;;2.90;1.60;;;;;;;;;;20771061;28;20302;-76
2023/08/12 08:53:16;;;;;;;3.83;2.53;;;;;;;;;;20760879;28;20215;-75
2023/08/12 09:03:18;;;;;;;2.72;2.00;;;;;;;;;;20759522;28;20780;-76
2023/08/12 09:13:19;;;;;;;1.38;1.08;;;;;;;;;;20744225;28;20241;-75
2023/08/12 09:23:22;;;;;;;1.67;1.15;;;;;;;;;;20742839;28;20225;-75
2023/08/12 09:33:26;;;;;;;4.03;1.33;;;;;;;;;;20785363;28;20771;-75
2023/08/12 09:43:29;;;;;;;1.83;1.23;;;;;;;;;;20752215;28;20245;-76
2023/08/12 09:53:32;;;;;;;1.92;1.10;;;;;;;;;;20741409;28;20596;-76
2023/08/12 10:03:37;;;;;;;1.52;1.23;;;;;;;;;;20836141;28;20219;-78
2023/08/12 10:13:40;;;;;;;2.33;1.50;;;27.10;99.90;;;;;;20839901;28;20258;-78
2023/08/12 10:23:42;;;;;;;1.92;1.30;;;;;;;;;;20820741;28;20242;-78
2023/08/12 10:33:48;;;;;;;2.60;1.40;;;;;;;;;;20836313;28;20209;-79
2023/08/12 10:44:01;;;;;;;2.25;1.10;;;27.20;99.90;;;;;;20815626;28;20280;-79
2023/08/12 10:54:21;;;;;;;1.30;0.90;;;;;;;;;;20816434;28;20580;-78
2023/08/12 11:04:24;;;;;;;1.40;0.77;;;;;;;;;;20806886;28;20244;-78
2023/08/12 11:14:26;;;;;;;3.42;1.13;;;;;;;;;;20828182;28;20601;-76
2023/08/12 11:24:31;;;;;;;4.40;1.35;;;25.60;99.90;;;;;;20789453;28;20290;-77
2023/08/12 11:34:33;;;;;;;1.98;0.90;;;;;;;;;;20826186;28;20226;-77
2023/08/12 11:44:35;;;;;;;4.30;1.08;;;;;;;;;;20793570;28;20272;-78
2023/08/12 11:54:37;;;;;;;1.02;0.80;;;;;;;;;;20873639;28;20240;-78
2023/08/12 12:04:44;;;;;;;2.53;0.95;;;25.00;99.90;;;;;;20892471;28;20315;-78
2023/08/12 12:14:47;;;;;;;2.55;0.88;;;;;;;;;;20785528;28;20205;-77
2023/08/12 12:24:49;;;;;;;1.48;0.70;;;;;;;;;;20871991;28;20777;-78
2023/08/12 12:34:52;;;;;;;1.65;0.80;;;;;;;;;;20819171;28;20227;-77
2023/08/12 12:44:55;;;;;;;2.38;0.95;;;;;;;;;;20812001;28;20250;-77
2023/08/12 12:54:57;;;;;;;0.50;0.40;;;;;;;;;;20767807;28;20644;-76
2023/08/12 13:04:59;;;;;;;1.33;0.90;;;;;;;;;;20757687;28;20227;-76
2023/08/12 13:15:00;;;;;;;1.77;0.80;;;;;;;;;;20759016;28;20217;-77
2023/08/12 13:25:02;;;;;;;1.27;0.75;;;;;;;;;;20837963;28;20566;-77
2023/08/12 13:35:05;;;;;;;1.20;0.75;;;;;;;;;;20835520;28;20213;-76
2023/08/12 13:45:07;;;;;;;1.67;0.80;;;;;;;;;;20840023;28;20210;-76
2023/08/12 13:55:09;;;;;;;1.60;0.90;;;;;;;;;;20840442;28;20270;-77
2023/08/12 14:05:11;;;;;;;1.20;0.70;;;;;;;;;;20776639;23;20450;-78
2023/08/12 14:15:12;;;;;;;1.13;0.70;;;;;;;;;;20988790;28;20656;-76
2023/08/12 14:25:15;;;;;;;1.40;0.82;;;;;;;;;;20984670;28;20232;-77
2023/08/12 14:35:17;;;;;;;1.73;0.80;;;;;;;;;;20975035;28;20209;-77
2023/08/12 14:45:18;;;;;;;2.50;1.08;;;;;;;;;;20963924;28;20278;-77
2023/08/12 14:55:20;;;;;;;2.55;1.10;;;;;;;;;;20982997;28;20241;-83
2023/08/12 15:05:22;;;;;;;1.55;0.82;;;;;;;;;;20964392;28;20246;-76
2023/08/12 15:15:24;;;;;;;1.65;1.10;;;;;;;;;;20981870;28;20259;-75
2023/08/12 15:25:26;;;;;;;1.75;0.90;;;;;;;;;;20980734;28;20694;-75
2023/08/12 15:35:28;;;;;;;1.33;0.75;;;;;;;;;;20980193;28;20206;-76
2023/08/12 15:45:29;;;;;;;1.33;0.85;;;;;;;;;;20962434;28;20642;-78
2023/08/12 15:55:31;;;;;;;1.55;0.77;;;;;;;;;;20963055;28;20562;-76
2023/08/12 16:05:34;;;;;;;1.42;0.80;;;;;;;;;;20947986;28;20253;-76
2023/08/12 16:15:35;;;;;;;2.67;0.75;;;;;;;;;;20993353;28;20198;-77
2023/08/12 16:25:37;;;;;;;1.08;0.70;;;;;;;;;;20962945;28;20237;-78
2023/08/12 16:35:40;;;;;;;1.85;0.90;;;;;;;;;;20991382;28;20211;-78
2023/08/12 16:45:41;;;;;;;1.33;0.50;;;;;;;;;;20994843;28;20289;-79
2023/08/12 16:55:43;;;;;;;0.70;0.50;;;;;;;;;;20993528;28;20266;-76
2023/08/12 17:05:44;;;;;;;1.30;0.68;;;;;;;;;;20959166;28;20372;-75
2023/08/12 17:15:46;;;;;;;1.30;0.57;;;;;;;;;;20970471;28;20207;-77
2023/08/12 17:25:48;;;;;;;0.73;0.40;;;;;;;;;;20956663;28;20278;-79
2023/08/12 17:35:50;;;;;;;0.70;0.40;;;;;;;;;;20971672;28;20205;-77
2023/08/12 17:45:51;;;;;;;2.05;0.50;;;;;;;;;;20972896;28;20691;-81
2023/08/12 17:55:53;;;;;;;0.63;0.50;;;;;;;;;;20955855;28;20568;-78
2023/08/12 18:05:55;;;;;;;0.47;0.38;;;;;;;;;;20989173;28;20290;-78
2023/08/12 18:15:56;;;;;;;1.55;0.50;;;;;;;;;;20946129;28;20242;-77
2023/08/12 18:25:58;;;;;;;1.40;0.50;;;;;;;;;;20985766;28;20354;-77
2023/08/12 18:36:00;;;;;;;1.58;0.70;;;;;;;;;;20985599;28;20242;-77
2023/08/12 18:46:03;;;;;;;1.20;0.60;;;25.40;99.90;;;;;;20952428;28;20228;-77
2023/08/12 18:56:05;;;;;;;2.95;0.68;;;;;;;;;;20967058;28;20713;-78
2023/08/12 19:06:07;;;;;;;1.38;0.60;;;;;;;;;;20985860;28;20276;-77
2023/08/12 19:16:09;;;;;;;1.00;0.55;;;;;;;;;;20963430;28;20641;-77
2023/08/12 19:26:11;;;;;;;0.65;0.43;;;;;;;;;;20983611;28;20322;-79
2023/08/12 19:36:13;;;;;;;1.08;0.50;;;;;;;;;;20984659;28;20203;-78
2023/08/12 19:46:15;;;;;;;1.60;0.50;;;;;;;;;;20989777;28;20747;-78
2023/08/12 19:56:28;;;;;;;1.00;0.60;;;;;;;;;;20982488;28;20224;-77
2023/08/12 20:06:30;;;;;;;0.68;0.43;;;;;;;;;;20966696;28;20288;-78
2023/08/12 20:16:31;;;;;;;1.10;0.75;;;;;;;;;;20980927;28;20264;-78
2023/08/12 20:26:34;;;;;;;1.52;0.57;;;;;;;;;;20998422;28;20765;-78
2023/08/12 20:36:35;;;;;;;0.88;0.52;;;;;;;;;;20997261;28;20270;-78
2023/08/12 20:46:39;;;;;;;1.70;0.52;;;;;;;;;;20995642;28;20302;-78
2023/08/12 20:56:40;;;;;;;0.80;0.50;;;;;;;;;;20977650;28;20215;-78
2023/08/12 21:06:43;;;;;;;0.60;0.40;;;24.10;99.90;;;;;;20943070;28;20574;-78
2023/08/12 21:16:44;;;;;;;2.35;0.77;;;;;;;;;;20958746;28;20710;-78
2023/08/12 21:26:46;;;;;;;0.90;0.70;;;;;;;;;;20980116;28;20238;-78
2023/08/12 21:36:48;;;;;;;1.58;0.60;;;;;;;;;;20980039;28;20557;-78
2023/08/12 21:46:50;;;;;;;0.93;0.55;;;;;;;;;;21008317;28;20292;-79
2023/08/12 21:56:52;;;;;;;0.70;0.50;;;;;;;;;;20993171;28;20868;-78
2023/08/12 22:06:53;;;;;;;0.82;0.40;;;;;;;;;;21070433;22;20231;-78
2023/08/12 22:16:57;;;;;;;0.63;0.45;;;;;;;;;;21045681;28;20706;-78
2023/08/12 22:26:59;;;;;;;0.50;0.38;;;;;;;;;;21017378;28;20594;-78
2023/08/12 22:37:00;;;;;;;2.28;0.30;;;;;;;;;;21059433;28;20247;-77
2023/08/12 22:47:02;;;;;;;0.57;0.50;;;;;;;;;;21036489;28;20297;-78
2023/08/12 22:57:05;;;;;;;1.00;0.30;;;;;;;;;;21039735;28;20212;-78
2023/08/12 23:07:07;;;;;;;0.82;0.43;;;;;;;;;;21029561;28;20234;-78
2023/08/12 23:17:09;;;;;;;0.52;0.40;;;;;;;;;;21021380;28;20217;-79
2023/08/12 23:27:10;;;;;;;1.50;0.50;;;;;;;;;;21015571;28;20237;-79
2023/08/12 23:37:12;;;;;;;0.50;0.40;;;;;;;;;;21048815;28;20594;-78
2023/08/12 23:47:14;;;;;;;0.30;0.30;;;;;;;;;;21040332;28;20221;-78
2023/08/12 23:57:15;;;;;;;0.40;0.30;;;;;;;;;;21001255;28;20277;-78
